createdAt,value
2018-06-17T00:01:30.777Z,7.73
2018-06-17T00:04:05.010Z,7.67
2018-06-17T00:06:39.367Z,7.63
2018-06-17T00:09:13.620Z,7.30
2018-06-17T00:11:48.081Z,7.27
2018-06-17T00:14:22.598Z,8.10
2018-06-17T00:16:56.878Z,7.60
2018-06-17T00:19:31.075Z,7.60
2018-06-17T00:22:05.302Z,9.03
2018-06-17T00:24:39.631Z,8.73
2018-06-17T00:27:13.999Z,8.67
2018-06-17T00:29:48.313Z,8.30
2018-06-17T00:32:22.531Z,8.93
2018-06-17T00:34:56.982Z,8.40
2018-06-17T00:37:31.281Z,8.73
2018-06-17T00:40:05.482Z,8.57
2018-06-17T00:42:39.830Z,9.30
2018-06-17T00:45:14.184Z,9.20
2018-06-17T00:47:48.487Z,9.47
2018-06-17T00:50:22.767Z,9.10
2018-06-17T00:52:57.010Z,9.23
2018-06-17T00:55:31.380Z,9.30
2018-06-17T00:58:05.720Z,8.53
2018-06-17T01:00:40.154Z,8.93
2018-06-17T01:03:14.483Z,8.57
2018-06-17T01:05:48.845Z,8.90
2018-06-17T01:08:23.133Z,9.10
2018-06-17T01:10:57.462Z,8.47
2018-06-17T01:13:31.644Z,8.77
2018-06-17T01:16:06.056Z,8.97
2018-06-17T01:18:40.348Z,8.00
2018-06-17T01:21:14.620Z,9.55
2018-06-17T01:23:48.999Z,7.97
2018-06-17T01:26:23.282Z,8.63
2018-06-17T01:28:57.646Z,7.83
2018-06-17T01:31:31.844Z,7.63
2018-06-17T01:34:06.243Z,8.37
2018-06-17T01:36:40.582Z,8.17
2018-06-17T01:39:14.906Z,7.90
2018-06-17T01:41:49.172Z,7.60
2018-06-17T01:44:23.554Z,7.97
2018-06-17T01:46:57.872Z,7.87
2018-06-17T01:49:32.086Z,8.17
2018-06-17T01:52:06.420Z,8.40
2018-06-17T01:54:40.645Z,8.27
2018-06-17T01:57:14.793Z,9.23
2018-06-17T01:59:49.026Z,9.13
2018-06-17T02:02:23.357Z,9.20
2018-06-17T02:05:03.111Z,9.40
2018-06-17T02:07:42.777Z,9.70
2018-06-17T02:10:22.515Z,9.97
2018-06-17T02:12:56.694Z,9.97
2018-06-17T02:15:31.045Z,10.67
2018-06-17T02:18:05.365Z,10.97
2018-06-17T02:20:39.587Z,11.03
2018-06-17T02:23:13.903Z,12.10
2018-06-17T02:25:48.335Z,12.50
2018-06-17T02:28:22.626Z,12.80
2018-06-17T02:30:56.787Z,12.83
2018-06-17T02:33:31.066Z,12.60
2018-06-17T02:36:05.485Z,13.03
2018-06-17T02:38:39.642Z,12.60
2018-06-17T02:41:14.091Z,12.70
2018-06-17T02:43:48.393Z,12.83
2018-06-17T02:46:28.267Z,13.10
2018-06-17T02:49:07.924Z,13.77
2018-06-17T02:51:47.453Z,14.00
2018-06-17T02:54:26.982Z,14.67
2018-06-17T02:57:01.144Z,13.80
2018-06-17T02:59:35.410Z,14.00
2018-06-17T03:02:09.996Z,14.33
2018-06-17T03:04:44.325Z,15.73
2018-06-17T03:07:18.467Z,14.23
2018-06-17T03:09:52.922Z,15.03
2018-06-17T03:12:27.181Z,14.50
2018-06-17T03:15:01.431Z,15.30
2018-06-17T03:17:35.793Z,14.73
2018-06-17T03:20:10.044Z,15.17
2018-06-17T03:22:44.266Z,15.87
2018-06-17T03:25:24.066Z,16.30
2018-06-17T03:28:03.593Z,16.57
2018-06-17T03:30:43.350Z,16.33
2018-06-17T03:33:22.933Z,16.63
2018-06-17T03:36:02.515Z,15.10
2018-06-17T03:38:36.738Z,15.87
2018-06-17T03:41:11.999Z,16.60
2018-06-17T03:43:46.192Z,16.50
2018-06-17T03:46:20.489Z,17.00
2018-06-17T03:48:54.780Z,15.43
2018-06-17T03:51:29.200Z,18.63
2018-06-17T03:54:03.422Z,18.13
2018-06-17T03:56:37.808Z,18.90
2018-06-17T03:59:11.989Z,17.97
2018-06-17T04:01:46.443Z,17.63
2018-06-17T04:04:22.582Z,17.90
2018-06-17T04:06:56.774Z,17.27
2018-06-17T04:09:31.137Z,16.93
2018-06-17T04:12:05.459Z,17.50
2018-06-17T04:14:40.060Z,15.47
2018-06-17T04:17:15.114Z,17.07
2018-06-17T04:19:49.415Z,16.67
2018-06-17T04:22:23.750Z,17.20
2018-06-17T04:24:57.999Z,17.33
2018-06-17T04:27:32.459Z,17.77
2018-06-17T04:30:06.713Z,17.10
2018-06-17T04:32:40.942Z,16.53
2018-06-17T04:35:15.114Z,15.70
2018-06-17T04:37:49.401Z,15.03
2018-06-17T04:40:23.753Z,14.67
2018-06-17T04:42:58.039Z,14.47
2018-06-17T04:45:32.476Z,14.13
2018-06-17T04:48:06.778Z,14.50
2018-06-17T04:50:40.991Z,13.90
2018-06-17T04:53:15.149Z,13.57
2018-06-17T04:55:49.551Z,13.83
2018-06-17T04:58:24.007Z,13.63
2018-06-17T05:00:58.223Z,12.73
2018-06-17T05:03:32.459Z,12.87
2018-06-17T05:06:06.786Z,13.17
2018-06-17T05:08:41.117Z,12.80
2018-06-17T05:11:15.395Z,12.93
2018-06-17T05:13:49.797Z,13.67
2018-06-17T05:16:23.998Z,13.03
2018-06-17T05:18:58.207Z,13.40
2018-06-17T05:21:32.602Z,12.03
2018-06-17T05:24:06.941Z,12.53
2018-06-17T05:26:41.201Z,12.30
2018-06-17T05:29:15.461Z,11.73
2018-06-17T05:31:49.955Z,11.00
2018-06-17T05:34:24.388Z,11.33
2018-06-17T05:36:58.578Z,12.23
2018-06-17T05:39:32.918Z,11.87
2018-06-17T05:42:07.006Z,12.73
2018-06-17T05:44:41.227Z,11.53
2018-06-17T05:47:15.447Z,10.80
2018-06-17T05:49:49.653Z,10.30
2018-06-17T05:52:23.926Z,9.97
2018-06-17T05:54:58.151Z,8.63
2018-06-17T05:57:32.615Z,8.43
2018-06-17T06:00:07.019Z,8.50
2018-06-17T06:02:41.296Z,8.10
2018-06-17T06:05:15.421Z,8.27
2018-06-17T06:07:49.618Z,8.03
2018-06-17T06:10:23.998Z,6.80
2018-06-17T06:12:58.307Z,7.37
2018-06-17T06:15:32.590Z,6.77
2018-06-17T06:18:06.797Z,7.03
2018-06-17T06:20:41.170Z,6.30
2018-06-17T06:23:15.486Z,6.67
2018-06-17T06:25:49.751Z,6.97
2018-06-17T06:28:24.073Z,5.77
2018-06-17T06:30:58.389Z,5.43
2018-06-17T06:33:32.571Z,6.53
2018-06-17T06:36:06.893Z,5.83
2018-06-17T06:38:41.237Z,4.80
2018-06-17T06:41:15.573Z,4.80
2018-06-17T06:43:49.855Z,4.33
2018-06-17T06:46:24.091Z,3.77
2018-06-17T06:48:58.449Z,4.30
2018-06-17T06:51:32.720Z,4.50
2018-06-17T06:54:06.911Z,4.10
2018-06-17T06:56:41.101Z,4.13
2018-06-17T06:59:15.333Z,3.60
2018-06-17T07:02:01.048Z,4.23
2018-06-17T07:04:46.799Z,4.20
2018-06-17T07:07:32.703Z,4.03
2018-06-17T07:10:12.461Z,3.77
2018-06-17T07:12:46.676Z,3.20
2018-06-17T07:15:32.536Z,4.43
2018-06-17T07:18:18.090Z,3.47
2018-06-17T07:20:52.347Z,3.43
2018-06-17T07:23:26.610Z,3.37
2018-06-17T07:26:40.639Z,2.73
2018-06-17T07:29:28.590Z,3.60
2018-06-17T07:32:02.882Z,2.87
2018-06-17T07:34:37.188Z,3.93
2018-06-17T07:37:11.420Z,3.43
2018-06-17T07:40:50.174Z,3.43
2018-06-17T07:43:24.452Z,3.07
2018-06-17T07:45:58.782Z,2.87
2018-06-17T07:49:46.666Z,2.83
2018-06-17T07:52:33.568Z,3.23
2018-06-17T07:55:07.839Z,2.90
2018-06-17T07:57:42.171Z,3.33
2018-06-17T08:00:16.434Z,2.80
2018-06-17T08:02:50.821Z,2.70
2018-06-17T08:05:25.124Z,2.67
2018-06-17T08:07:59.166Z,2.80
2018-06-17T08:10:33.518Z,3.20
2018-06-17T08:13:07.878Z,2.20
2018-06-17T08:15:42.190Z,2.40
2018-06-17T08:18:16.486Z,2.00
2018-06-17T08:20:50.778Z,2.17
2018-06-17T08:23:24.923Z,2.40
2018-06-17T08:25:59.161Z,2.07
2018-06-17T08:28:33.354Z,2.70
2018-06-17T08:31:07.791Z,2.20
2018-06-17T08:33:42.149Z,2.27
2018-06-17T08:36:16.322Z,2.03
2018-06-17T08:38:50.651Z,1.73
2018-06-17T08:41:24.926Z,1.87
2018-06-17T08:43:59.384Z,2.23
2018-06-17T08:46:33.699Z,2.27
2018-06-17T08:49:07.943Z,2.00
2018-06-17T08:51:42.269Z,2.07
2018-06-17T08:54:16.645Z,2.00
2018-06-17T08:56:50.928Z,2.00
2018-06-17T08:59:25.151Z,1.90
2018-06-17T09:01:59.588Z,1.80
2018-06-17T09:04:33.887Z,2.10
2018-06-17T09:07:08.246Z,2.10
2018-06-17T09:09:42.521Z,1.90
2018-06-17T09:12:16.855Z,2.10
2018-06-17T09:14:50.982Z,1.80
2018-06-17T09:17:25.167Z,1.90
2018-06-17T09:19:59.526Z,1.67
2018-06-17T09:22:33.856Z,2.00
2018-06-17T09:25:08.261Z,2.37
2018-06-17T09:27:42.554Z,2.47
2018-06-17T09:30:16.843Z,2.20
2018-06-17T09:32:51.310Z,1.70
2018-06-17T09:35:25.671Z,2.40
2018-06-17T09:37:59.869Z,1.93
2018-06-17T09:40:34.278Z,1.60
2018-06-17T09:43:08.611Z,2.00
2018-06-17T09:45:42.831Z,2.47
2018-06-17T09:48:17.359Z,1.67
2018-06-17T09:50:51.730Z,1.70
2018-06-17T09:53:26.255Z,1.70
2018-06-17T09:56:00.558Z,1.73
2018-06-17T09:58:35.031Z,1.60
2018-06-17T10:01:09.195Z,1.77
2018-06-17T10:03:43.567Z,1.60
2018-06-17T10:06:17.754Z,2.13
2018-06-17T10:08:52.126Z,1.77
2018-06-17T10:11:26.543Z,1.70
2018-06-17T10:14:00.770Z,1.80
2018-06-17T10:16:35.131Z,1.67
2018-06-17T10:19:09.465Z,2.30
2018-06-17T10:21:43.771Z,1.90
2018-06-17T10:24:17.946Z,1.90
2018-06-17T10:26:52.159Z,2.10
2018-06-17T10:29:26.588Z,1.70
2018-06-17T10:32:00.890Z,1.90
2018-06-17T10:34:35.155Z,1.60
2018-06-17T10:37:09.497Z,2.13
2018-06-17T10:39:43.819Z,1.70
2018-06-17T10:42:18.119Z,2.00
2018-06-17T10:44:52.350Z,1.67
2018-06-17T10:47:26.828Z,1.77
2018-06-17T10:50:01.143Z,2.17
2018-06-17T10:52:35.499Z,2.07
2018-06-17T10:55:10.531Z,1.80
2018-06-17T10:57:45.858Z,1.97
2018-06-17T11:00:20.188Z,1.93
2018-06-17T11:02:54.504Z,1.83
2018-06-17T11:05:28.851Z,1.93
2018-06-17T11:08:03.088Z,1.80
2018-06-17T11:10:37.483Z,2.17
2018-06-17T11:13:11.816Z,1.60
2018-06-17T11:15:46.162Z,2.30
2018-06-17T11:18:20.538Z,2.13
2018-06-17T11:20:54.686Z,2.20
2018-06-17T11:23:28.986Z,2.47
2018-06-17T11:26:03.305Z,2.17
2018-06-17T11:28:37.602Z,2.07
2018-06-17T11:31:11.942Z,2.30
2018-06-17T11:33:46.303Z,2.07
2018-06-17T11:36:20.522Z,2.10
2018-06-17T11:38:54.763Z,2.30
2018-06-17T11:41:29.023Z,2.30
2018-06-17T11:44:03.343Z,2.37
2018-06-17T11:46:37.758Z,2.27
2018-06-17T11:49:12.416Z,1.87
2018-06-17T11:51:46.886Z,2.47
2018-06-17T11:54:21.037Z,2.20
2018-06-17T11:56:55.180Z,2.17
2018-06-17T11:59:29.607Z,2.43
2018-06-17T12:02:03.963Z,2.23
2018-06-17T12:04:38.335Z,1.73
2018-06-17T12:07:12.602Z,2.10
2018-06-17T12:09:46.912Z,2.60
2018-06-17T12:12:21.191Z,2.50
2018-06-17T12:14:55.514Z,1.90
2018-06-17T12:17:29.653Z,2.20
2018-06-17T12:20:04.016Z,2.57
2018-06-17T12:22:38.273Z,2.07
2018-06-17T12:25:12.432Z,2.67
2018-06-17T12:27:46.932Z,2.03
2018-06-17T12:30:21.295Z,2.43
2018-06-17T12:32:55.598Z,1.90
2018-06-17T12:35:29.786Z,2.20
2018-06-17T12:38:04.188Z,2.20
2018-06-17T12:40:38.489Z,2.13
2018-06-17T12:43:12.746Z,2.10
2018-06-17T12:45:47.214Z,3.77
2018-06-17T12:48:21.387Z,2.27
2018-06-17T12:50:55.722Z,2.40
2018-06-17T12:53:30.060Z,2.47
2018-06-17T12:56:04.291Z,2.23
2018-06-17T12:58:38.610Z,1.80
2018-06-17T13:01:12.920Z,2.40
2018-06-17T13:03:47.162Z,2.07
2018-06-17T13:06:21.546Z,2.50
2018-06-17T13:08:55.882Z,2.20
2018-06-17T13:11:30.211Z,2.33
2018-06-17T13:14:04.551Z,2.30
2018-06-17T13:16:38.841Z,2.60
2018-06-17T13:19:13.159Z,2.33
2018-06-17T13:21:47.402Z,2.57
2018-06-17T13:24:21.726Z,2.20
2018-06-17T13:26:55.820Z,2.47
2018-06-17T13:29:29.962Z,2.30
2018-06-17T13:32:04.200Z,2.20
2018-06-17T13:34:38.499Z,2.23
2018-06-17T13:37:12.918Z,2.77
2018-06-17T13:39:47.205Z,2.40
2018-06-17T13:42:21.501Z,2.30
2018-06-17T13:44:55.815Z,2.43
2018-06-17T13:47:30.121Z,2.07
2018-06-17T13:50:04.783Z,2.27
2018-06-17T13:52:39.170Z,2.87
2018-06-17T13:55:13.374Z,3.20
2018-06-17T13:57:47.693Z,2.20
2018-06-17T14:00:21.925Z,2.23
2018-06-17T14:02:56.212Z,2.57
2018-06-17T14:05:30.458Z,2.53
2018-06-17T14:08:04.622Z,2.20
2018-06-17T14:10:38.890Z,1.93
2018-06-17T14:13:13.159Z,2.40
2018-06-17T14:15:47.419Z,2.00
2018-06-17T14:18:21.744Z,2.67
2018-06-17T14:20:55.900Z,2.40
2018-06-17T14:23:30.345Z,2.73
2018-06-17T14:26:04.622Z,2.37
2018-06-17T14:28:38.821Z,2.00
2018-06-17T14:31:13.142Z,2.10
2018-06-17T14:33:47.440Z,2.50
2018-06-17T14:36:21.717Z,2.50
2018-06-17T14:38:56.090Z,2.50
2018-06-17T14:41:30.416Z,2.60
2018-06-17T14:44:10.188Z,2.37
2018-06-17T14:46:49.723Z,2.30
2018-06-17T14:49:29.390Z,2.80
2018-06-17T14:52:06.738Z,2.50
2018-06-17T14:54:41.015Z,2.17
2018-06-17T14:57:15.290Z,3.20
2018-06-17T14:59:49.530Z,2.97
2018-06-17T15:02:23.923Z,2.00
2018-06-17T15:04:58.230Z,2.50
2018-06-17T15:07:32.676Z,2.20
2018-06-17T15:10:06.883Z,2.40
2018-06-17T15:12:41.187Z,2.13
2018-06-17T15:15:15.433Z,2.00
2018-06-17T15:17:49.827Z,2.27
2018-06-17T15:20:23.873Z,2.20
2018-06-17T15:22:58.096Z,2.13
2018-06-17T15:25:32.403Z,2.40
2018-06-17T15:28:06.584Z,2.00
2018-06-17T15:30:40.858Z,2.40
2018-06-17T15:33:20.740Z,2.10
2018-06-17T15:36:00.457Z,2.27
2018-06-17T15:38:40.067Z,2.37
2018-06-17T15:41:30.711Z,1.87
2018-06-17T15:44:05.019Z,2.50
2018-06-17T15:46:39.306Z,2.70
2018-06-17T15:49:13.507Z,2.93
2018-06-17T15:51:47.799Z,2.83
2018-06-17T15:54:22.118Z,2.43
2018-06-17T15:56:56.400Z,2.43
2018-06-17T15:59:30.792Z,2.47
2018-06-17T16:02:04.964Z,2.90
2018-06-17T16:04:39.242Z,2.43
2018-06-17T16:07:13.530Z,2.23
2018-06-17T16:09:47.857Z,2.87
2018-06-17T16:12:27.690Z,2.70
2018-06-17T16:15:07.242Z,2.50
2018-06-17T16:17:46.948Z,2.60
2018-06-17T16:20:26.555Z,2.17
2018-06-17T16:23:00.958Z,2.30
2018-06-17T16:25:35.379Z,2.80
2018-06-17T16:28:09.641Z,2.50
2018-06-17T16:30:43.937Z,2.90
2018-06-17T16:33:18.365Z,2.27
2018-06-17T16:35:52.795Z,2.43
2018-06-17T16:38:27.200Z,2.50
2018-06-17T16:41:01.511Z,2.53
2018-06-17T16:43:35.858Z,2.60
2018-06-17T16:46:10.177Z,2.83
2018-06-17T16:48:44.334Z,2.97
2018-06-17T16:51:24.106Z,3.10
2018-06-17T16:54:03.714Z,2.93
2018-06-17T16:56:43.238Z,3.10
2018-06-17T16:59:22.818Z,2.60
2018-06-17T17:01:57.027Z,4.53
2018-06-17T17:04:31.420Z,3.63
2018-06-17T17:07:05.679Z,3.03
2018-06-17T17:09:39.859Z,3.00
2018-06-17T17:12:14.201Z,2.97
2018-06-17T17:14:48.398Z,3.03
2018-06-17T17:17:22.677Z,3.77
2018-06-17T17:19:56.909Z,4.17
2018-06-17T17:22:31.125Z,2.47
2018-06-17T17:25:05.438Z,2.60
2018-06-17T17:27:39.688Z,2.67
2018-06-17T17:30:13.999Z,2.20
2018-06-17T17:32:53.699Z,2.37
2018-06-17T17:35:33.451Z,2.50
2018-06-17T17:38:13.046Z,2.80
2018-06-17T17:40:52.289Z,2.67
2018-06-17T17:43:26.789Z,2.53
2018-06-17T17:46:06.458Z,2.60
2018-06-17T17:48:40.707Z,2.50
2018-06-17T17:51:15.042Z,2.40
2018-06-17T17:53:49.544Z,2.60
2018-06-17T17:56:23.830Z,2.73
2018-06-17T17:58:58.232Z,2.87
2018-06-17T18:01:32.471Z,3.27
2018-06-17T18:04:06.762Z,2.73
2018-06-17T18:06:41.002Z,2.97
2018-06-17T18:09:15.310Z,2.87
2018-06-17T18:11:49.656Z,2.83
2018-06-17T18:14:23.977Z,2.93
2018-06-17T18:16:58.368Z,3.50
2018-06-17T18:19:32.727Z,2.97
2018-06-17T18:22:07.087Z,2.93
2018-06-17T18:24:41.317Z,2.77
2018-06-17T18:27:20.955Z,2.93
2018-06-17T18:30:00.543Z,3.43
2018-06-17T18:32:40.135Z,2.73
2018-06-17T18:35:20.006Z,2.53
2018-06-17T18:37:54.210Z,2.63
2018-06-17T18:40:28.526Z,2.60
2018-06-17T18:43:02.917Z,2.60
2018-06-17T18:45:37.044Z,2.63
2018-06-17T18:48:17.084Z,2.73
2018-06-17T18:50:51.375Z,2.73
2018-06-17T18:53:26.106Z,3.17
2018-06-17T18:56:00.244Z,2.93
2018-06-17T18:58:34.423Z,3.20
2018-06-17T19:01:08.575Z,2.87
2018-06-17T19:03:42.725Z,3.20
2018-06-17T19:06:17.004Z,3.13
2018-06-17T19:08:56.561Z,2.77
2018-06-17T19:11:36.055Z,3.30
2018-06-17T19:14:15.778Z,3.43
2018-06-17T19:16:55.215Z,3.30
2018-06-17T19:19:29.387Z,3.23
2018-06-17T19:22:03.754Z,3.20
2018-06-17T19:24:37.941Z,2.97
2018-06-17T19:27:12.262Z,3.03
2018-06-17T19:29:46.666Z,3.33
2018-06-17T19:32:20.867Z,3.50
2018-06-17T19:34:55.106Z,3.37
2018-06-17T19:37:29.041Z,3.40
2018-06-17T19:40:03.193Z,3.27
2018-06-17T19:42:37.470Z,3.17
2018-06-17T19:45:11.898Z,3.00
2018-06-17T19:47:46.239Z,3.50
2018-06-17T19:50:25.884Z,4.17
2018-06-17T19:53:05.558Z,3.40
2018-06-17T19:55:45.390Z,3.70
2018-06-17T19:58:25.118Z,4.07
2018-06-17T20:01:01.110Z,3.40
2018-06-17T20:03:35.406Z,3.83
2018-06-17T20:06:09.751Z,3.47
2018-06-17T20:08:43.942Z,3.90
2018-06-17T20:11:18.270Z,4.30
2018-06-17T20:13:52.691Z,3.70
2018-06-17T20:16:26.941Z,3.63
2018-06-17T20:19:01.145Z,3.90
2018-06-17T20:21:35.454Z,4.20
2018-06-17T20:24:09.815Z,3.80
2018-06-17T20:26:44.142Z,3.83
2018-06-17T20:29:18.629Z,3.67
2018-06-17T20:31:58.190Z,6.87
2018-06-17T20:34:37.908Z,5.40
2018-06-17T20:37:17.435Z,4.20
2018-06-17T20:39:56.950Z,4.67
2018-06-17T20:42:36.385Z,4.30
2018-06-17T20:45:10.754Z,4.60
2018-06-17T20:47:45.007Z,4.20
2018-06-17T20:50:19.441Z,4.87
2018-06-17T20:52:53.729Z,4.67
2018-06-17T20:55:28.031Z,4.33
2018-06-17T20:58:02.345Z,4.63
2018-06-17T21:00:36.686Z,4.20
2018-06-17T21:03:10.893Z,4.70
2018-06-17T21:05:45.273Z,4.47
2018-06-17T21:08:19.570Z,4.40
2018-06-17T21:10:53.766Z,4.57
2018-06-17T21:13:28.934Z,5.10
2018-06-17T21:16:03.282Z,4.37
2018-06-17T21:20:49.802Z,4.53
2018-06-17T21:23:29.490Z,5.00
2018-06-17T21:26:09.188Z,4.50
2018-06-17T21:28:43.367Z,4.73
2018-06-17T21:31:17.653Z,5.07
2018-06-17T21:33:51.924Z,5.13
2018-06-17T21:36:26.317Z,4.67
2018-06-17T21:39:00.595Z,4.53
2018-06-17T21:41:35.374Z,4.27
2018-06-17T21:44:10.093Z,4.37
2018-06-17T21:46:44.402Z,3.93
2018-06-17T21:49:18.688Z,4.60
2018-06-17T21:51:52.995Z,3.70
2018-06-17T21:54:27.290Z,3.67
2018-06-17T21:57:01.719Z,3.77
2018-06-17T21:59:36.006Z,4.10
2018-06-17T22:02:10.176Z,3.60
2018-06-17T22:04:44.551Z,3.33
2018-06-17T22:07:18.857Z,3.80
2018-06-17T22:09:58.977Z,3.40
2018-06-17T22:12:38.674Z,3.50
2018-06-17T22:15:18.067Z,3.77
2018-06-17T22:17:53.141Z,3.47
2018-06-17T22:20:27.425Z,3.53
2018-06-17T22:23:01.830Z,3.27
2018-06-17T22:25:36.083Z,3.70
2018-06-17T22:28:10.367Z,3.50
2018-06-17T22:30:44.594Z,3.77
2018-06-17T22:33:18.902Z,3.53
2018-06-17T22:35:53.066Z,4.10
2018-06-17T22:38:27.456Z,4.03
2018-06-17T22:41:01.675Z,3.70
2018-06-17T22:43:36.106Z,4.03
2018-06-17T22:46:10.467Z,7.27
2018-06-17T22:48:44.647Z,5.53
2018-06-17T22:51:18.942Z,4.10
2018-06-17T22:54:04.627Z,4.23
2018-06-17T22:56:44.077Z,6.87
2018-06-17T22:59:23.888Z,8.57
2018-06-17T23:02:03.511Z,6.20
2018-06-17T23:04:43.066Z,6.37
2018-06-17T23:07:22.843Z,4.73
2018-06-17T23:09:57.030Z,4.00
2018-06-17T23:12:31.292Z,5.67
2018-06-17T23:15:05.917Z,5.10
2018-06-17T23:17:40.062Z,4.10
2018-06-17T23:20:14.488Z,3.97
2018-06-17T23:22:48.866Z,4.23
2018-06-17T23:25:23.176Z,4.60
2018-06-17T23:27:57.463Z,4.80
2018-06-17T23:30:31.661Z,4.23
2018-06-17T23:33:05.862Z,4.37
2018-06-17T23:35:40.263Z,7.40
2018-06-17T23:38:14.730Z,5.13
2018-06-17T23:40:48.948Z,5.63
2018-06-17T23:43:23.278Z,5.00
2018-06-17T23:46:02.930Z,5.00
2018-06-17T23:48:42.510Z,4.83
2018-06-17T23:51:22.037Z,5.10
2018-06-17T23:54:01.710Z,5.33
2018-06-17T23:56:35.881Z,5.00
2018-06-17T23:59:10.231Z,5.13
